createdAt,value
2023-01-12T00:03:45.445Z,91.51
2023-01-12T00:08:48.480Z,90.80
2023-01-12T00:13:50.557Z,90.32
2023-01-12T00:18:52.428Z,89.49
2023-01-12T00:23:54.109Z,88.89
2023-01-12T00:28:55.818Z,88.70
2023-01-12T00:33:57.635Z,88.54
2023-01-12T00:38:59.311Z,88.33
2023-01-12T00:44:19.733Z,87.66
2023-01-12T00:49:21.489Z,87.43
2023-01-12T00:54:23.226Z,86.73
2023-01-12T00:59:24.861Z,86.50
2023-01-12T01:04:26.637Z,86.07
2023-01-12T01:09:29.350Z,85.95
2023-01-12T01:14:31.083Z,85.73
2023-01-12T01:19:32.954Z,85.59
2023-01-12T01:24:34.580Z,85.64
2023-01-12T01:29:36.515Z,86.02
2023-01-12T01:34:38.156Z,86.24
2023-01-12T01:39:39.818Z,86.29
2023-01-12T01:44:44.450Z,86.11
2023-01-12T01:49:49.361Z,86.20
2023-01-12T01:54:50.976Z,86.01
2023-01-12T01:59:55.872Z,86.07
2023-01-12T02:04:57.798Z,86.14
2023-01-12T02:09:59.501Z,86.42
2023-01-12T02:15:19.925Z,86.28
2023-01-12T02:20:40.571Z,86.57
2023-01-12T02:26:18.491Z,86.59
2023-01-12T02:31:38.875Z,86.57
2023-01-12T02:37:05.437Z,86.56
2023-01-12T02:42:36.246Z,86.38
2023-01-12T02:47:56.260Z,86.35
2023-01-12T02:53:06.380Z,86.00
2023-01-12T02:58:13.261Z,86.05
2023-01-12T03:03:17.156Z,85.95
2023-01-12T03:08:23.687Z,85.55
2023-01-12T03:13:28.571Z,85.29
2023-01-12T03:18:38.424Z,85.18
2023-01-12T03:24:08.801Z,85.36
2023-01-12T03:29:18.768Z,85.19
2023-01-12T03:34:20.972Z,85.29
2023-01-12T03:39:31.583Z,85.49
2023-01-12T03:44:40.108Z,85.32
2023-01-12T03:49:50.840Z,85.54
2023-01-12T03:54:56.924Z,85.36
2023-01-12T04:00:00.988Z,85.06
2023-01-12T04:05:02.849Z,85.03
2023-01-12T04:10:05.428Z,85.14
2023-01-12T04:15:07.886Z,84.82
2023-01-12T04:20:10.874Z,84.76
2023-01-12T04:25:13.750Z,84.55
2023-01-12T04:30:17.583Z,84.31
2023-01-12T04:35:19.629Z,84.19
2023-01-12T04:40:21.396Z,84.14
2023-01-12T04:45:23.361Z,83.70
2023-01-12T04:50:25.007Z,83.36
2023-01-12T04:55:26.838Z,83.31
2023-01-12T05:00:28.548Z,83.07
2023-01-12T05:05:32.090Z,82.62
2023-01-12T05:10:33.720Z,82.28
2023-01-12T05:15:35.372Z,82.01
2023-01-12T05:20:37.107Z,81.54
2023-01-12T05:25:38.857Z,81.30
2023-01-12T05:30:40.594Z,81.37
2023-01-12T05:35:42.267Z,80.89
2023-01-12T05:40:44.351Z,80.42
2023-01-12T05:45:46.325Z,80.72
2023-01-12T05:50:48.200Z,80.02
2023-01-12T05:55:49.916Z,79.84
2023-01-12T06:00:51.587Z,79.44
2023-01-12T06:05:58.299Z,79.56
2023-01-12T06:11:02.210Z,79.12
2023-01-12T06:16:06.480Z,79.22
2023-01-12T06:21:09.936Z,79.60
2023-01-12T06:26:11.871Z,78.94
2023-01-12T06:31:13.987Z,78.43
2023-01-12T06:36:15.950Z,78.01
2023-01-12T06:41:36.078Z,77.60
2023-01-12T06:46:37.762Z,77.38
2023-01-12T06:51:39.511Z,76.92
2023-01-12T06:56:41.287Z,76.51
2023-01-12T07:01:43.077Z,76.49
2023-01-12T07:06:44.796Z,75.75
2023-01-12T07:11:46.489Z,75.96
2023-01-12T07:16:48.165Z,75.84
2023-01-12T07:21:50.504Z,75.40
2023-01-12T07:26:53.786Z,75.46
2023-01-12T07:31:55.467Z,75.21
2023-01-12T07:36:57.641Z,74.95
2023-01-12T07:42:18.001Z,74.86
2023-01-12T07:47:20.048Z,74.85
2023-01-12T07:52:21.819Z,74.84
2023-01-12T07:57:24.181Z,74.70
2023-01-12T08:02:26.386Z,74.52
2023-01-12T08:07:32.278Z,74.38
2023-01-12T08:12:35.886Z,74.34
2023-01-12T08:17:43.978Z,74.17
2023-01-12T08:22:51.525Z,74.01
2023-01-12T08:27:56.006Z,73.75
2023-01-12T08:33:00.616Z,73.95
2023-01-12T08:38:02.390Z,73.14
2023-01-12T08:43:04.134Z,73.15
2023-01-12T08:48:06.088Z,72.49
2023-01-12T08:53:10.159Z,72.44
2023-01-12T08:58:12.453Z,72.16
2023-01-12T09:03:14.365Z,72.21
2023-01-12T09:08:16.371Z,71.55
2023-01-12T09:13:18.143Z,71.41
2023-01-12T09:18:20.392Z,71.18
2023-01-12T09:23:22.128Z,70.72
2023-01-12T09:28:23.857Z,70.56
2023-01-12T09:33:25.628Z,70.47
2023-01-12T09:38:27.351Z,70.30
2023-01-12T09:43:47.761Z,69.51
2023-01-12T09:48:49.778Z,69.23
2023-01-12T09:53:51.804Z,68.30
2023-01-12T09:59:22.385Z,68.06
2023-01-12T10:04:24.609Z,68.16
2023-01-12T10:09:26.679Z,68.49
2023-01-12T10:14:34.432Z,67.89
2023-01-12T10:19:42.376Z,67.28
2023-01-12T10:24:45.198Z,67.22
2023-01-12T10:29:48.148Z,66.83
2023-01-12T10:34:52.148Z,66.00
2023-01-12T10:39:54.622Z,66.32
2023-01-12T10:45:13.279Z,66.71
2023-01-12T10:50:24.042Z,66.77
2023-01-12T10:55:31.258Z,66.60
2023-01-12T11:00:34.125Z,66.05
2023-01-12T11:05:38.643Z,66.27
2023-01-12T11:10:40.764Z,66.52
2023-01-12T11:16:14.706Z,66.37
2023-01-12T11:21:20.093Z,66.02
2023-01-12T11:26:28.327Z,65.55
2023-01-12T11:31:39.514Z,65.67
2023-01-12T11:36:44.860Z,65.70
2023-01-12T11:42:13.446Z,65.39
2023-01-12T11:47:20.460Z,65.33
2023-01-12T11:52:25.177Z,65.16
2023-01-12T11:57:33.056Z,65.20
2023-01-12T12:02:38.812Z,65.47
2023-01-12T12:07:53.976Z,65.45
2023-01-12T12:13:15.888Z,65.20
2023-01-12T12:18:58.433Z,64.99
2023-01-12T12:24:24.723Z,64.81
2023-01-12T12:29:57.411Z,65.11
2023-01-12T12:35:23.180Z,65.74
2023-01-12T12:40:59.845Z,65.03
2023-01-12T12:46:13.000Z,65.19
2023-01-12T12:51:15.997Z,65.18
2023-01-12T12:56:19.107Z,65.47
2023-01-12T13:01:20.841Z,65.61
2023-01-12T13:06:29.293Z,65.49
2023-01-12T13:11:54.411Z,65.54
2023-01-12T13:17:01.915Z,65.86
2023-01-12T13:22:32.200Z,65.42
2023-01-12T13:28:09.234Z,65.54
2023-01-12T13:33:15.815Z,65.56
2023-01-12T13:38:39.470Z,65.35
2023-01-12T13:43:52.053Z,65.20
2023-01-12T13:48:55.992Z,65.85
2023-01-12T13:54:04.225Z,65.98
2023-01-12T13:59:08.160Z,65.86
2023-01-12T14:04:20.450Z,65.96
2023-01-12T14:09:55.847Z,65.84
2023-01-12T14:15:46.415Z,66.21
2023-01-12T14:20:56.871Z,65.95
2023-01-12T14:26:14.747Z,66.05
2023-01-12T14:31:22.533Z,65.95
2023-01-12T14:36:30.644Z,66.00
2023-01-12T14:41:50.988Z,65.87
2023-01-12T14:46:53.954Z,66.05
2023-01-12T14:52:01.908Z,65.85
2023-01-12T14:57:08.283Z,66.03
2023-01-12T15:02:25.450Z,65.65
2023-01-12T15:07:33.014Z,65.24
2023-01-12T15:12:56.819Z,65.66
2023-01-12T15:18:17.468Z,65.74
2023-01-12T15:23:42.857Z,65.93
2023-01-12T15:28:46.007Z,65.91
2023-01-12T15:33:47.799Z,65.75
2023-01-12T15:38:49.547Z,65.90
2023-01-12T15:43:51.231Z,66.00
2023-01-12T15:48:52.919Z,66.08
2023-01-12T15:53:54.635Z,66.70
2023-01-12T15:58:57.769Z,66.26
2023-01-12T16:04:32.007Z,66.47
2023-01-12T16:09:22.075Z,66.51
2023-01-12T16:14:26.448Z,66.67
2023-01-12T16:19:28.330Z,66.65
2023-01-12T16:24:32.351Z,66.77
2023-01-12T16:29:34.079Z,66.84
2023-01-12T16:34:36.172Z,66.94
2023-01-12T16:39:37.891Z,66.88
2023-01-12T16:44:40.395Z,67.01
2023-01-12T16:49:42.492Z,66.93
2023-01-12T16:54:44.434Z,66.89
2023-01-12T16:59:46.827Z,67.17
2023-01-12T17:04:51.844Z,67.22
2023-01-12T17:09:54.001Z,67.24
2023-01-12T17:14:56.520Z,67.15
2023-01-12T17:19:58.264Z,67.27
2023-01-12T17:25:00.051Z,67.40
2023-01-12T17:30:02.289Z,67.12
2023-01-12T17:35:07.183Z,67.22
2023-01-12T17:40:09.793Z,67.40
2023-01-12T17:45:12.426Z,67.50
2023-01-12T17:50:16.247Z,67.77
2023-01-12T17:55:18.120Z,67.65
2023-01-12T18:00:20.166Z,67.67
2023-01-12T18:05:22.187Z,67.64
2023-01-12T18:10:24.571Z,67.93
2023-01-12T18:15:26.877Z,68.01
2023-01-12T18:20:28.591Z,68.26
2023-01-12T18:25:30.550Z,68.31
2023-01-12T18:30:32.410Z,68.47
2023-01-12T18:35:35.982Z,68.42
2023-01-12T18:40:37.826Z,68.68
2023-01-12T18:45:39.683Z,68.62
2023-01-12T18:51:17.680Z,68.61
2023-01-12T18:56:19.764Z,68.61
2023-01-12T19:01:24.790Z,68.58
2023-01-12T19:06:39.946Z,68.60
2023-01-12T19:11:41.733Z,68.64
2023-01-12T19:17:04.756Z,68.55
2023-01-12T19:22:25.282Z,68.57
2023-01-12T19:27:45.604Z,68.26
2023-01-12T19:32:47.324Z,68.56
2023-01-12T19:37:49.975Z,68.93
2023-01-12T19:43:10.374Z,68.65
2023-01-12T19:48:14.249Z,68.72
2023-01-12T19:53:28.152Z,68.75
2023-01-12T19:58:30.485Z,68.90
2023-01-12T20:03:32.402Z,68.90
2023-01-12T20:08:34.337Z,68.90
2023-01-12T20:13:36.199Z,68.91
2023-01-12T20:18:38.232Z,68.99
2023-01-12T20:23:39.886Z,68.89
2023-01-12T20:28:41.829Z,69.01
2023-01-12T20:33:43.610Z,68.94
2023-01-12T20:38:47.297Z,68.98
2023-01-12T20:43:49.119Z,69.06
2023-01-12T20:48:53.279Z,69.11
2023-01-12T20:53:55.812Z,69.34
2023-01-12T20:58:58.300Z,69.37
2023-01-12T21:04:00.274Z,69.13
2023-01-12T21:09:02.045Z,69.11
2023-01-12T21:14:04.479Z,69.11
2023-01-12T21:19:07.457Z,68.92
2023-01-12T21:24:09.405Z,68.93
2023-01-12T21:29:11.199Z,68.91
2023-01-12T21:34:13.195Z,68.92
2023-01-12T21:39:14.980Z,68.76
2023-01-12T21:44:16.886Z,68.68
2023-01-12T21:49:18.712Z,68.91
2023-01-12T21:54:20.543Z,68.79
2023-01-12T21:59:22.201Z,68.90
2023-01-12T22:04:24.087Z,68.83
2023-01-12T22:09:26.013Z,68.76
2023-01-12T22:14:27.781Z,68.62
2023-01-12T22:19:29.470Z,68.80
2023-01-12T22:24:31.285Z,68.80
2023-01-12T22:29:32.974Z,68.74
2023-01-12T22:34:34.652Z,68.71
2023-01-12T22:39:36.383Z,68.50
2023-01-12T22:44:38.097Z,68.69
2023-01-12T22:49:39.759Z,68.58
2023-01-12T22:54:41.645Z,68.65
2023-01-12T22:59:43.381Z,68.70
2023-01-12T23:04:45.122Z,68.90
2023-01-12T23:09:46.976Z,68.80
2023-01-12T23:14:48.848Z,68.62
2023-01-12T23:19:50.648Z,68.52
2023-01-12T23:24:52.399Z,68.61
2023-01-12T23:29:54.176Z,68.47
2023-01-12T23:34:56.284Z,68.73
2023-01-12T23:39:58.044Z,68.75
2023-01-12T23:44:59.837Z,68.29
2023-01-12T23:50:02.446Z,68.48
2023-01-12T23:55:05.741Z,68.13
